Time;durP1;ratioP1;P1;durP2;ratioP2;P2;SDS_P1;SDS_P2;PMS_P1;PMS_P2;Temp;Humidity;BMP_temperature;BMP_pressure;BME280_temperature;BME280_humidity;BME280_pressure;Samples;Min_cycle;Max_cycle;Signal;HPM_P1;HPM_P2
2022/03/05 00:00:20;;;;;;;14.87;9.27;;;;;;;1.75;84.21;102083.75;5000335;28;20236;-56
2022/03/05 00:02:47;;;;;;;11.93;9.30;;;;;;;1.65;85.36;102081.44;5012721;28;20911;-57
2022/03/05 00:05:13;;;;;;;10.60;8.67;;;;;;;1.59;85.53;102081.13;5008799;28;20240;-57
2022/03/05 00:07:40;;;;;;;12.13;9.77;;;;;;;1.57;85.66;102074.94;5016365;28;20246;-60
2022/03/05 00:10:07;;;;;;;12.37;9.20;;;;;;;1.49;86.26;102084.88;5008313;28;20301;-58
2022/03/05 00:12:35;;;;;;;12.90;9.00;;;;;;;1.41;86.51;102079.25;5017895;28;20252;-58
2022/03/05 00:15:01;;;;;;;10.77;8.87;;;;;;;1.31;85.65;102081.22;5006151;28;20646;-57
2022/03/05 00:17:28;;;;;;;11.37;8.67;;;;;;;1.32;87.50;102078.72;5013881;28;20261;-56
2022/03/05 00:19:54;;;;;;;12.37;8.47;;;;;;;1.27;87.95;102082.75;5013990;28;20260;-59
2022/03/05 00:22:21;;;;;;;10.70;8.73;;;;;;;1.24;88.44;102084.25;5018404;28;20236;-57
2022/03/05 00:28:58;;;;;;;15.90;8.30;;;;;;;1.18;89.80;102084.78;5019254;28;20264;-58
2022/03/05 00:31:26;;;;;;;12.27;8.10;;;;;;;1.13;90.29;102076.75;5009424;28;20693;-57
2022/03/05 00:33:52;;;;;;;11.83;8.33;;;;;;;1.09;91.04;102081.63;5006613;28;20282;-55
2022/03/05 00:36:19;;;;;;;10.33;6.83;;;;;;;1.07;91.10;102078.09;5002336;28;20289;-56
2022/03/05 00:38:45;;;;;;;9.53;7.07;;;;;;;1.03;91.57;102078.72;5020009;28;20325;-57
2022/03/05 00:41:12;;;;;;;8.23;6.70;;;;;;;0.95;91.49;102079.16;4995767;28;20714;-56
2022/03/05 00:43:38;;;;;;;8.07;6.37;;;;;;;0.94;91.86;102079.94;5007996;28;20302;-56
2022/03/05 00:46:05;;;;;;;7.33;5.37;;;;;;;0.93;92.13;102073.00;5010347;28;20294;-56
2022/03/05 00:48:32;;;;;;;4.70;4.27;;;;;;;0.93;92.82;102085.91;5019737;28;20354;-56
2022/03/05 00:50:59;;;;;;;8.17;4.90;;;;;;;0.91;92.45;102077.19;5020764;28;20255;-58
2022/03/05 00:53:25;;;;;;;6.93;4.40;;;;;;;0.95;92.77;102074.00;5019184;28;20509;-58
2022/03/05 00:55:51;;;;;;;8.30;4.93;;;;;;;0.90;92.84;102077.97;5021619;28;20251;-56
2022/03/05 00:58:18;;;;;;;8.77;4.80;;;;;;;0.86;93.12;102075.13;5017555;28;20295;-59
2022/03/05 01:00:44;;;;;;;6.10;4.60;;;;;;;0.88;93.67;102079.59;5002927;28;20296;-58
2022/03/05 01:03:10;;;;;;;7.90;4.60;;;;;;;0.85;93.57;102079.41;5004426;28;20240;-57
2022/03/05 01:05:38;;;;;;;8.00;4.47;;;;;;;0.89;93.78;102075.31;5011499;28;20314;-57
2022/03/05 01:08:05;;;;;;;5.80;4.33;;;;;;;0.85;93.63;102076.81;5010189;28;20250;-57
2022/03/05 01:10:31;;;;;;;6.00;4.37;;;;;;;0.88;93.93;102074.41;4996750;28;20241;-56
2022/03/05 01:12:58;;;;;;;9.10;5.57;;;;;;;0.87;93.26;102077.78;5006287;28;20291;-57
2022/03/05 01:15:24;;;;;;;7.30;5.23;;;;;;;0.87;93.19;102079.47;5013487;28;20243;-58
2022/03/05 01:17:51;;;;;;;7.70;5.67;;;;;;;0.88;93.26;102079.59;5003250;28;20759;-58
2022/03/05 01:20:17;;;;;;;12.17;7.53;;;;;;;0.84;93.22;102077.63;5010998;28;20243;-58
2022/03/05 01:22:45;;;;;;;9.97;7.43;;;;;;;0.81;93.08;102085.19;5004304;28;20253;-57
2022/03/05 01:25:11;;;;;;;13.00;7.87;;;;;;;0.72;93.39;102087.22;5009436;28;20237;-58
2022/03/05 01:27:38;;;;;;;13.57;9.63;;;;;;;0.65;94.50;102082.47;5023139;28;20237;-60
2022/03/05 01:30:05;;;;;;;13.00;8.93;;;;;;;0.60;93.97;102082.22;5039679;28;20240;-56
2022/03/05 01:32:32;;;;;;;15.73;9.50;;;;;;;0.53;94.45;102074.88;5012718;28;20287;-57
2022/03/05 01:34:58;;;;;;;13.83;10.30;;;;;;;0.51;94.82;102080.75;5017534;28;20239;-57
2022/03/05 01:37:25;;;;;;;15.43;10.53;;;;;;;0.49;94.86;102088.38;5029579;28;20240;-60
2022/03/05 01:39:53;;;;;;;11.23;8.53;;;;;;;0.46;94.72;102080.47;5006231;28;20295;-57
2022/03/05 01:42:20;;;;;;;13.33;8.70;;;;;;;0.46;95.42;102073.63;5005803;28;20240;-56
2022/03/05 01:44:46;;;;;;;11.00;7.90;;;;;;;0.42;95.33;102066.47;5002192;28;20342;-58
2022/03/05 01:47:13;;;;;;;13.10;7.33;;;;;;;0.42;95.57;102076.81;5012297;28;20236;-60
2022/03/05 01:49:39;;;;;;;10.87;7.30;;;;;;;0.41;95.76;102075.00;5006061;28;20303;-56
2022/03/05 01:52:06;;;;;;;11.93;7.87;;;;;;;0.39;95.63;102061.13;5014783;28;20243;-58
2022/03/05 01:54:33;;;;;;;10.07;6.90;;;;;;;0.37;95.86;102060.13;5012809;28;20244;-57
2022/03/05 01:57:01;;;;;;;13.00;8.80;;;;;;;0.38;95.84;102066.16;5015183;28;20244;-56
2022/03/05 01:59:28;;;;;;;10.53;7.83;;;;;;;0.37;95.96;102062.69;5000258;28;20690;-58
2022/03/05 02:01:54;;;;;;;10.93;8.27;;;;;;;0.33;96.54;102065.91;5011789;28;20237;-57
2022/03/05 02:04:21;;;;;;;14.83;7.83;;;;;;;0.30;96.50;102060.53;5013285;28;20297;-57
2022/03/05 02:06:48;;;;;;;8.70;7.80;;;;;;;0.31;96.76;102062.31;5001543;28;20262;-58
2022/03/05 02:09:14;;;;;;;10.40;7.80;;;;;;;0.28;96.61;102062.16;5013320;28;20936;-58
2022/03/05 02:11:40;;;;;;;13.10;8.70;;;;;;;0.28;96.95;102067.31;5019341;28;20289;-57
2022/03/05 02:14:08;;;;;;;12.83;8.87;;;;;;;0.24;96.84;102049.81;5018136;28;20583;-58
2022/03/05 02:16:35;;;;;;;11.80;8.93;;;;;;;0.18;96.97;102052.94;5018357;28;20332;-58
2022/03/05 02:19:04;;;;;;;14.70;9.43;;;;;;;0.13;97.31;102048.28;5020409;28;20329;-57
2022/03/05 02:21:32;;;;;;;12.70;9.67;;;;;;;0.09;97.39;102049.75;4995856;28;20247;-57
2022/03/05 02:23:59;;;;;;;14.13;8.40;;;;;;;0.02;97.30;102057.03;5013542;28;20228;-57
2022/03/05 02:26:26;;;;;;;11.73;8.33;;;;;;;0.05;98.17;102054.66;5000165;28;20327;-57
2022/03/05 02:28:52;;;;;;;11.63;9.90;;;;;;;0.01;98.29;102056.16;5006460;28;20247;-57
2022/03/05 02:31:19;;;;;;;18.17;10.17;;;;;;;-0.01;98.26;102057.72;5003384;28;20248;-57
2022/03/05 02:33:45;;;;;;;16.47;10.07;;;;;;;-0.07;98.49;102047.94;5007819;28;20302;-57
2022/03/05 02:36:12;;;;;;;12.77;9.83;;;;;;;-0.10;98.60;102041.69;5013836;28;20235;-58
2022/03/05 02:38:40;;;;;;;17.80;11.17;;;;;;;-0.11;98.92;102043.34;5003691;28;20239;-56
2022/03/05 02:41:06;;;;;;;15.97;10.83;;;;;;;-0.11;99.23;102047.63;5013077;28;20235;-57
2022/03/05 02:43:33;;;;;;;19.37;10.87;;;;;;;-0.15;99.66;102043.94;5020435;28;20243;-58
2022/03/05 02:45:59;;;;;;;15.67;9.80;;;;;;;-0.18;99.41;102043.75;5020670;28;20296;-58
2022/03/05 02:48:26;;;;;;;13.93;10.53;;;;;;;-0.18;100.00;102043.75;5004854;28;20634;-56
2022/03/05 02:50:52;;;;;;;17.70;11.13;;;;;;;-0.19;99.94;102047.13;4999704;28;20252;-58
2022/03/05 02:53:19;;;;;;;22.80;11.07;;;;;;;-0.18;100.00;102042.88;4993013;28;20245;-57
2022/03/05 02:55:47;;;;;;;18.43;10.77;;;;;;;-0.23;100.00;102045.16;5010992;28;20241;-56
2022/03/05 02:58:14;;;;;;;20.57;10.63;;;;;;;-0.29;99.95;102039.59;5008595;28;20237;-59
2022/03/05 03:00:40;;;;;;;13.10;9.20;;;;;;;-0.31;100.00;102041.22;5003939;28;20351;-56
2022/03/05 03:03:07;;;;;;;15.33;9.63;;;;;;;-0.33;99.85;102042.78;5007046;28;20750;-56
2022/03/05 03:05:33;;;;;;;9.90;8.60;;;;;;;-0.33;100.00;102045.38;5001112;28;20247;-57
2022/03/05 03:08:00;;;;;;;15.33;9.77;;;;;;;-0.33;100.00;102041.09;5018210;28;20238;-57
2022/03/05 03:10:26;;;;;;;12.43;9.40;;;;;;;-0.36;100.00;102040.00;5006067;28;20328;-56
2022/03/05 03:12:54;;;;;;;15.97;9.63;;;;;;;-0.40;100.00;102038.03;5002183;28;20250;-56
2022/03/05 03:15:20;;;;;;;15.40;9.50;;;;;;;-0.44;100.00;102038.63;5020005;28;20993;-58
2022/03/05 03:17:48;;;;;;;10.63;8.53;;;;;;;-0.51;100.00;102038.22;5015739;28;20746;-57
2022/03/05 03:20:17;;;;;;;14.83;8.80;;;;;;;-0.54;100.00;102040.59;5015092;28;20239;-57
2022/03/05 03:22:45;;;;;;;13.43;9.43;;;;;;;-0.56;100.00;102042.22;5016090;28;20239;-57
2022/03/05 03:25:11;;;;;;;13.63;9.53;;;;;;;-0.59;100.00;102039.44;5013329;28;20235;-57
2022/03/05 03:27:38;;;;;;;14.30;9.83;;;;;;;-0.62;100.00;102038.34;5019982;28;20737;-57
2022/03/05 03:30:09;;;;;;;12.57;8.57;;;;;;;-0.61;100.00;102041.00;5009082;28;20342;-57
2022/03/05 03:32:35;;;;;;;14.17;9.10;;;;;;;-0.58;100.00;102035.16;5020853;28;20277;-57
2022/03/05 03:35:02;;;;;;;15.40;10.00;;;;;;;-0.57;100.00;102037.81;5031675;28;20236;-57
2022/03/05 03:37:29;;;;;;;15.07;8.93;;;;;;;-0.56;100.00;102042.22;5014740;28;20296;-57
2022/03/05 03:39:56;;;;;;;13.13;9.40;;;;;;;-0.57;100.00;102045.56;4995932;28;20250;-57
2022/03/05 03:42:23;;;;;;;13.67;8.83;;;;;;;-0.56;100.00;102047.38;5002587;28;20269;-57
2022/03/05 03:44:49;;;;;;;15.67;10.40;;;;;;;-0.58;100.00;102045.47;5013442;28;20231;-57
2022/03/05 03:47:17;;;;;;;14.70;9.83;;;;;;;-0.60;100.00;102047.94;5023137;28;20442;-57
2022/03/05 03:49:43;;;;;;;12.50;9.33;;;;;;;-0.61;100.00;102046.16;5018723;28;20828;-56
2022/03/05 03:52:10;;;;;;;12.77;9.17;;;;;;;-0.59;100.00;102054.91;5017321;28;20251;-57
2022/03/05 03:54:36;;;;;;;12.57;9.47;;;;;;;-0.63;100.00;102049.44;5005847;28;20248;-57
2022/03/05 03:57:03;;;;;;;13.73;8.53;;;;;;;-0.64;100.00;102051.13;4999932;28;20750;-57
2022/03/05 03:59:29;;;;;;;15.30;10.23;;;;;;;-0.60;100.00;102049.63;5009182;28;20657;-57
2022/03/05 04:01:56;;;;;;;12.63;9.37;;;;;;;-0.66;100.00;102054.41;4996080;28;20243;-57
2022/03/05 04:04:23;;;;;;;11.00;8.23;;;;;;;-0.64;100.00;102051.13;5010305;28;20270;-56
2022/03/05 04:09:34;;;;;;;11.10;8.63;;;;;;;-0.66;100.00;102059.56;5018010;28;20800;-57
2022/03/05 04:12:00;;;;;;;13.87;8.03;;;;;;;-0.67;100.00;102053.50;5002247;28;20236;-58
2022/03/05 04:14:27;;;;;;;12.07;8.30;;;;;;;-0.80;100.00;102056.97;5010088;28;20251;-58
2022/03/05 04:16:53;;;;;;;9.93;7.70;;;;;;;-0.82;100.00;102066.28;5009149;28;20239;-57
2022/03/05 04:19:19;;;;;;;11.43;7.27;;;;;;;-0.88;100.00;102060.69;5015879;28;20668;-58
2022/03/05 04:21:47;;;;;;;10.40;7.90;;;;;;;-0.96;100.00;102057.63;4998956;28;20716;-57
2022/03/05 04:24:14;;;;;;;12.93;7.77;;;;;;;-0.96;100.00;102061.88;5008864;28;20234;-57
2022/03/05 04:26:40;;;;;;;11.93;8.17;;;;;;;-1.00;100.00;102063.38;5006689;28;20270;-57
2022/03/05 04:29:06;;;;;;;10.23;8.13;;;;;;;-1.03;100.00;102060.59;5014855;28;20243;-57
2022/03/05 04:31:33;;;;;;;12.70;8.57;;;;;;;-1.00;100.00;102060.78;5014071;28;20237;-58
2022/03/05 04:33:59;;;;;;;11.13;8.43;;;;;;;-1.01;100.00;102060.69;5018773;28;20717;-57
2022/03/05 04:36:26;;;;;;;10.60;8.57;;;;;;;-1.01;100.00;102060.69;5007406;28;20239;-57
2022/03/05 04:38:53;;;;;;;12.00;8.53;;;;;;;-0.99;100.00;102067.72;5011364;28;20729;-57
2022/03/05 04:41:20;;;;;;;10.70;8.03;;;;;;;-1.02;100.00;102067.53;5021124;28;20239;-57
2022/03/05 04:43:48;;;;;;;10.97;7.90;;;;;;;-1.04;100.00;102066.53;5013020;28;20228;-56
2022/03/05 04:46:15;;;;;;;8.50;7.33;;;;;;;-1.04;100.00;102065.66;5010938;28;20697;-57
2022/03/05 04:48:41;;;;;;;9.90;7.87;;;;;;;-1.04;100.00;102069.13;5010218;28;20245;-57
2022/03/05 04:51:08;;;;;;;10.53;7.53;;;;;;;-1.03;100.00;102076.03;5010879;28;20281;-58
2022/03/05 04:53:35;;;;;;;8.87;7.93;;;;;;;-1.03;100.00;102075.16;5019039;28;20244;-58
2022/03/05 04:56:03;;;;;;;7.87;7.07;;;;;;;-1.05;100.00;102077.66;5027411;28;20232;-57
2022/03/05 04:58:29;;;;;;;9.40;7.40;;;;;;;-1.06;100.00;102077.53;4998821;28;20238;-57
2022/03/05 05:00:56;;;;;;;8.13;6.60;;;;;;;-1.04;100.00;102076.84;5010806;28;20240;-57
2022/03/05 05:03:22;;;;;;;10.13;6.83;;;;;;;-1.03;100.00;102076.03;5010913;28;21089;-57
2022/03/05 05:05:48;;;;;;;11.27;6.93;;;;;;;-1.05;100.00;102084.50;5010719;28;20239;-57
2022/03/05 05:08:16;;;;;;;9.73;7.97;;;;;;;-1.05;100.00;102069.03;5016061;28;20248;-57
2022/03/05 05:10:42;;;;;;;11.33;7.10;;;;;;;-1.02;100.00;102079.50;5015016;28;20228;-57
2022/03/05 05:13:10;;;;;;;11.00;6.87;;;;;;;-1.06;100.00;102078.41;5017346;28;20734;-57
2022/03/05 05:15:36;;;;;;;10.07;7.20;;;;;;;-1.03;100.00;102075.16;5022000;28;20251;-57
2022/03/05 05:18:03;;;;;;;13.17;8.40;;;;;;;-1.06;100.00;102086.16;5021956;28;20261;-56
2022/03/05 05:20:30;;;;;;;8.73;7.40;;;;;;;-1.07;100.00;102078.31;5014040;28;20305;-57
2022/03/05 05:22:56;;;;;;;10.83;7.13;;;;;;;-1.04;100.00;102075.97;5013199;28;20321;-57
2022/03/05 05:25:23;;;;;;;11.67;8.03;;;;;;;-1.07;100.00;102079.22;5014129;28;20804;-56
2022/03/05 05:27:49;;;;;;;11.90;8.00;;;;;;;-1.04;100.00;102081.09;5031653;28;20246;-57
2022/03/05 05:30:17;;;;;;;15.63;8.40;;;;;;;-1.08;100.00;102082.59;5014658;28;20243;-55
2022/03/05 05:32:44;;;;;;;13.00;8.23;;;;;;;-1.05;100.00;102085.38;5018233;28;20253;-57
2022/03/05 05:35:10;;;;;;;12.67;8.90;;;;;;;-1.07;100.00;102084.38;5009408;28;20237;-56
2022/03/05 05:37:37;;;;;;;12.60;8.57;;;;;;;-1.05;100.00;102087.06;5011134;28;20309;-56
2022/03/05 05:40:04;;;;;;;11.93;8.90;;;;;;;-1.10;100.00;102094.47;5008635;28;20675;-57
2022/03/05 05:42:30;;;;;;;13.53;8.47;;;;;;;-1.10;100.00;102094.47;5011949;28;20265;-56
2022/03/05 05:44:56;;;;;;;15.33;8.53;;;;;;;-1.12;100.00;102090.91;5005969;28;20233;-56
2022/03/05 05:47:24;;;;;;;9.87;8.83;;;;;;;-1.12;100.00;102090.91;5018618;28;20249;-56
2022/03/05 05:49:51;;;;;;;12.33;9.47;;;;;;;-1.14;100.00;102092.47;5020830;28;20305;-56
2022/03/05 05:52:18;;;;;;;13.50;9.47;;;;;;;-1.12;100.00;102090.91;5020975;28;20255;-57
2022/03/05 05:54:44;;;;;;;14.70;7.93;;;;;;;-1.11;100.00;102094.38;5012206;28;20243;-58
2022/03/05 05:57:11;;;;;;;15.63;10.73;;;;;;;-1.13;100.00;102094.25;5014009;28;20323;-56
2022/03/05 05:59:37;;;;;;;15.00;9.60;;;;;;;-1.12;100.00;102101.22;4993592;28;20669;-58
2022/03/05 06:02:04;;;;;;;12.17;8.77;;;;;;;-1.11;100.00;102100.41;5003332;28;20253;-55
2022/03/05 06:04:32;;;;;;;12.73;8.47;;;;;;;-1.12;100.00;102096.06;5002918;28;20786;-57
2022/03/05 06:06:58;;;;;;;11.47;8.50;;;;;;;-1.14;100.00;102096.75;4999760;28;20250;-57
2022/03/05 06:09:25;;;;;;;15.53;9.40;;;;;;;-1.14;100.00;102100.19;5008954;28;20230;-57
2022/03/05 06:11:51;;;;;;;13.20;8.80;;;;;;;-1.15;100.00;102106.16;5006870;28;20238;-57
2022/03/05 06:14:18;;;;;;;16.30;9.33;;;;;;;-1.16;100.00;102104.34;5016715;28;20235;-57
2022/03/05 06:16:44;;;;;;;12.50;9.33;;;;;;;-1.13;100.00;102106.25;5010837;28;20240;-56
2022/03/05 06:19:11;;;;;;;11.33;8.70;;;;;;;-1.13;100.00;102107.13;5014904;28;20729;-58
2022/03/05 06:21:38;;;;;;;15.40;8.97;;;;;;;-1.18;100.00;102111.09;5019489;28;20247;-58
2022/03/05 06:24:07;;;;;;;13.30;9.57;;;;;;;-1.17;100.00;102109.41;5016156;28;20585;-59
2022/03/05 06:26:34;;;;;;;13.07;9.27;;;;;;;-1.15;100.00;102115.56;5018172;28;20329;-57
2022/03/05 06:29:00;;;;;;;13.90;8.47;;;;;;;-1.17;100.00;102122.28;5007958;28;20235;-57
2022/03/05 06:31:26;;;;;;;11.17;8.87;;;;;;;-1.16;100.00;102119.81;5003290;28;20245;-58
2022/03/05 06:33:53;;;;;;;12.70;9.30;;;;;;;-1.12;100.00;102126.97;5011989;28;20251;-57
2022/03/05 06:36:19;;;;;;;17.77;9.73;;;;;;;-1.09;100.00;102122.03;5007160;28;20239;-57
2022/03/05 06:38:47;;;;;;;14.20;9.50;;;;;;;-1.02;100.00;102123.31;5000354;28;20900;-58
2022/03/05 06:41:13;;;;;;;12.27;8.20;;;;;;;-0.99;100.00;102129.59;5017328;28;20229;-58
2022/03/05 06:43:40;;;;;;;11.00;8.63;;;;;;;-0.91;100.00;102132.72;5017646;28;20237;-58
2022/03/05 06:46:06;;;;;;;10.80;8.83;;;;;;;-0.89;100.00;102135.38;5021743;28;20235;-56
2022/03/05 06:48:33;;;;;;;18.90;8.87;;;;;;;-0.85;100.00;102137.38;5010629;28;20248;-56
2022/03/05 06:50:59;;;;;;;11.90;8.70;;;;;;;-0.76;100.00;102144.03;5014073;28;20224;-57
2022/03/05 06:53:26;;;;;;;10.67;8.37;;;;;;;-0.70;100.00;102135.84;5013894;28;20259;-57
2022/03/05 06:55:53;;;;;;;11.83;8.20;;;;;;;-0.29;100.00;102137.66;5010716;28;20825;-57
2022/03/05 06:58:20;;;;;;;12.03;8.77;;;;;;;-0.31;100.00;102134.09;5006150;28;20282;-57
2022/03/05 07:00:46;;;;;;;14.23;8.77;;;;;;;0.05;100.00;102140.75;5012100;28;20239;-57
2022/03/05 07:03:12;;;;;;;13.83;7.77;;;;;;;0.59;100.00;102137.25;5017331;28;20247;-57
2022/03/05 07:05:39;;;;;;;10.47;7.73;;;;;;;1.28;100.00;102131.09;5017922;28;20301;-57
2022/03/05 07:08:05;;;;;;;14.10;8.53;;;;;;;1.19;96.79;102139.22;5019461;28;20752;-57
2022/03/05 07:10:32;;;;;;;14.40;9.10;;;;;;;1.24;95.35;102142.06;5025338;28;20236;-56
2022/03/05 07:13:00;;;;;;;10.50;8.07;;;;;;;0.86;96.34;102138.06;5023087;28;20256;-57
2022/03/05 07:15:26;;;;;;;13.47;8.10;;;;;;;1.10;99.24;102137.75;5017718;28;20251;-56
2022/03/05 07:17:53;;;;;;;10.77;7.93;;;;;;;1.80;94.23;102134.13;4994894;28;20240;-58
2022/03/05 07:20:20;;;;;;;11.70;8.47;;;;;;;1.30;94.35;102133.75;5022031;28;20237;-56
2022/03/05 07:22:47;;;;;;;11.73;8.37;;;;;;;1.20;94.80;102134.94;5007460;28;20271;-57
2022/03/05 07:25:14;;;;;;;10.70;8.90;;;;;;;1.55;97.69;102130.94;5020388;28;20240;-58
2022/03/05 07:27:41;;;;;;;13.90;8.30;;;;;;;1.64;93.43;102134.03;5023586;28;20242;-57
2022/03/05 07:30:10;;;;;;;10.77;7.90;;;;;;;2.00;94.92;102139.50;5015491;28;20236;-57
2022/03/05 07:32:37;;;;;;;11.53;8.07;;;;;;;2.13;92.09;102136.81;5007881;28;20290;-57
2022/03/05 07:35:04;;;;;;;14.53;9.50;;;;;;;1.87;90.26;102140.53;5013344;28;20277;-58
2022/03/05 07:37:31;;;;;;;12.73;8.37;;;;;;;1.55;91.73;102143.88;5013266;28;20236;-56
2022/03/05 07:39:57;;;;;;;13.27;9.00;;;;;;;2.04;93.36;102142.38;5011686;28;20236;-56
2022/03/05 07:42:24;;;;;;;9.90;7.87;;;;;;;1.38;91.60;102141.19;5022856;28;20247;-58
2022/03/05 07:44:51;;;;;;;14.67;8.90;;;;;;;1.66;93.34;102142.78;5020341;28;20258;-57
2022/03/05 07:47:18;;;;;;;14.17;9.00;;;;;;;1.77;93.61;102153.75;5019235;28;20236;-58
2022/03/05 07:49:45;;;;;;;13.40;8.00;;;;;;;1.92;91.57;102147.75;5017694;28;20236;-56
2022/03/05 07:52:11;;;;;;;12.07;8.40;;;;;;;2.30;89.28;102150.72;5021389;28;20239;-57
2022/03/05 07:54:38;;;;;;;10.43;7.50;;;;;;;2.53;89.86;102154.56;5022185;28;20243;-57
2022/03/05 07:57:04;;;;;;;10.13;7.63;;;;;;;2.63;88.50;102162.94;5012830;28;20243;-58
2022/03/05 07:59:30;;;;;;;12.77;8.93;;;;;;;2.54;85.18;102153.75;5003042;28;20727;-57
2022/03/05 08:01:57;;;;;;;14.07;9.10;;;;;;;1.77;88.83;102156.34;5010336;28;20244;-58
2022/03/05 08:04:24;;;;;;;12.37;8.83;;;;;;;1.72;89.94;102153.50;5009616;28;20297;-58
2022/03/05 08:06:51;;;;;;;12.20;9.63;;;;;;;1.89;90.12;102155.34;5012028;28;20243;-57
2022/03/05 08:09:17;;;;;;;11.00;8.57;;;;;;;1.70;89.89;102155.09;5013222;28;20234;-57
2022/03/05 08:11:44;;;;;;;13.73;9.30;;;;;;;1.65;90.98;102147.06;5010557;28;20267;-58
2022/03/05 08:14:10;;;;;;;10.27;8.60;;;;;;;1.88;90.96;102160.44;5009826;28;20291;-57
2022/03/05 08:16:36;;;;;;;12.97;9.43;;;;;;;1.59;90.38;102151.00;4988090;28;20298;-58
2022/03/05 08:19:03;;;;;;;11.33;9.17;;;;;;;1.92;88.85;102158.09;5019722;28;20251;-57
2022/03/05 08:21:32;;;;;;;11.33;8.37;;;;;;;2.16;88.27;102155.13;5016701;28;20305;-57
2022/03/05 08:23:59;;;;;;;14.33;10.07;;;;;;;2.28;89.07;102150.63;5020511;28;20682;-58
2022/03/05 08:26:25;;;;;;;17.40;9.43;;;;;;;2.61;87.67;102154.16;5014933;28;20443;-57
2022/03/05 08:28:52;;;;;;;10.20;8.87;;;;;;;2.44;86.14;102159.25;5013420;28;20223;-58
2022/03/05 08:31:18;;;;;;;10.47;8.87;;;;;;;2.30;87.22;102161.06;5005951;28;20240;-56
2022/03/05 08:33:45;;;;;;;11.70;8.03;;;;;;;2.57;88.11;102164.28;5014530;28;20712;-58
2022/03/05 08:36:11;;;;;;;18.90;9.23;;;;;;;2.62;84.42;102150.75;5015487;28;20236;-57
2022/03/05 08:38:40;;;;;;;12.07;9.30;;;;;;;2.60;85.60;102156.69;5003934;28;20309;-56
2022/03/05 08:41:06;;;;;;;11.33;8.53;;;;;;;3.39;86.31;102148.69;5005709;28;20445;-59
2022/03/05 08:43:33;;;;;;;13.30;8.70;;;;;;;3.46;81.69;102155.97;5020744;28;20902;-59
2022/03/05 08:46:01;;;;;;;11.00;8.63;;;;;;;3.37;81.37;102152.91;5016672;28;20243;-59
2022/03/05 08:48:27;;;;;;;15.67;8.23;;;;;;;3.90;79.40;102144.34;5007141;28;20738;-58
2022/03/05 08:50:54;;;;;;;9.90;8.20;;;;;;;3.77;78.82;102154.09;5017347;28;20324;-58
2022/03/05 08:53:20;;;;;;;15.63;9.13;;;;;;;3.83;78.24;102154.41;5014112;28;20656;-57
2022/03/05 08:55:48;;;;;;;12.33;9.10;;;;;;;3.86;78.53;102150.16;5010533;28;20244;-59
2022/03/05 08:58:14;;;;;;;10.10;8.43;;;;;;;3.97;78.69;102144.69;5013887;28;20813;-59
2022/03/05 09:00:41;;;;;;;16.43;9.40;;;;;;;3.99;77.92;102147.34;5005539;28;20252;-59
2022/03/05 09:03:07;;;;;;;10.93;9.57;;;;;;;3.73;78.15;102146.97;5002533;28;20237;-60
2022/03/05 09:05:33;;;;;;;10.93;9.83;;;;;;;3.45;78.28;102151.63;5007478;28;20901;-60
2022/03/05 09:08:00;;;;;;;11.47;9.33;;;;;;;3.74;79.04;102153.06;5017310;28;20239;-58
2022/03/05 09:10:26;;;;;;;10.63;8.30;;;;;;;3.91;77.56;102149.59;5010708;28;20244;-59
2022/03/05 09:12:54;;;;;;;13.63;9.80;;;;;;;4.18;77.75;102155.25;5007278;28;20254;-59
2022/03/05 09:15:20;;;;;;;16.30;8.70;;;;;;;4.57;76.02;102152.72;5013065;28;20232;-59
2022/03/05 09:17:47;;;;;;;10.63;8.47;;;;;;;4.52;73.10;102151.59;5010354;28;20671;-59
2022/03/05 09:20:14;;;;;;;12.40;8.40;;;;;;;4.79;74.72;102155.47;5006873;28;20244;-59
2022/03/05 09:22:40;;;;;;;12.97;7.67;;;;;;;4.97;71.00;102146.72;5012351;28;20270;-60
2022/03/05 09:25:08;;;;;;;12.33;8.37;;;;;;;5.26;73.06;102143.69;5009018;28;20241;-61
2022/03/05 09:27:34;;;;;;;10.90;8.60;;;;;;;5.38;71.26;102142.44;5005828;28;20337;-59
2022/03/05 09:30:03;;;;;;;11.47;8.90;;;;;;;5.13;69.27;102149.19;5001755;28;20292;-58
2022/03/05 09:32:29;;;;;;;10.93;8.43;;;;;;;5.21;68.91;102144.31;5001913;28;20246;-58
2022/03/05 09:34:59;;;;;;;11.17;8.20;;;;;;;5.39;69.67;102133.78;4992005;28;20236;-59
2022/03/05 09:37:25;;;;;;;12.87;9.23;;;;;;;5.59;70.29;102140.72;5011290;28;20316;-59
2022/03/05 09:39:52;;;;;;;10.73;8.17;;;;;;;5.73;69.48;102144.81;5013182;28;20247;-57
2022/03/05 09:42:18;;;;;;;10.80;8.43;;;;;;;5.94;66.43;102146.56;5011019;28;20256;-59
2022/03/05 09:44:44;;;;;;;11.33;8.23;;;;;;;5.87;68.09;102144.50;5001191;28;20236;-59
2022/03/05 09:47:13;;;;;;;10.47;8.37;;;;;;;5.67;67.02;102141.06;5010348;28;20237;-62
2022/03/05 09:49:39;;;;;;;10.83;9.03;;;;;;;5.48;67.65;102145.50;5025251;28;20247;-59
2022/03/05 09:52:07;;;;;;;13.00;8.70;;;;;;;5.32;67.27;102147.38;5015284;28;20693;-58
2022/03/05 09:54:33;;;;;;;10.83;8.77;;;;;;;5.58;67.08;102136.38;5021088;28;20394;-58
2022/03/05 09:57:00;;;;;;;12.33;9.07;;;;;;;4.86;69.19;102142.75;5011500;28;20701;-61
2022/03/05 09:59:26;;;;;;;11.87;8.50;;;;;;;5.24;68.94;102145.34;5015083;28;20245;-58
2022/03/05 10:01:53;;;;;;;10.10;8.67;;;;;;;5.18;67.69;102151.97;5010988;28;20232;-60
2022/03/05 10:04:22;;;;;;;11.97;8.97;;;;;;;5.47;67.79;102143.69;5012265;28;20247;-60
2022/03/05 10:07:10;;;;;;;9.77;8.40;;;;;;;5.70;68.04;102147.28;4996924;28;20253;-59
2022/03/05 10:09:37;;;;;;;10.87;8.43;;;;;;;5.81;67.25;102145.13;5014734;28;20252;-59
2022/03/05 10:12:24;;;;;;;11.50;8.53;;;;;;;5.62;66.29;102140.88;5015927;28;20286;-58
2022/03/05 10:15:04;;;;;;;17.27;9.33;;;;;;;5.25;67.42;102139.28;5023655;28;20244;-59
2022/03/05 10:17:47;;;;;;;14.20;8.27;;;;;;;5.58;67.16;102141.56;5006534;28;20339;-60
2022/03/05 10:20:15;;;;;;;11.13;8.33;;;;;;;5.53;66.80;102137.88;5022597;28;20232;-59
2022/03/05 10:22:54;;;;;;;8.83;7.43;;;;;;;5.75;67.24;102135.31;4997186;28;20245;-60
2022/03/05 10:25:28;;;;;;;9.80;6.93;;;;;;;5.85;65.90;102133.97;5020027;28;20232;-58
2022/03/05 10:28:00;;;;;;;10.40;8.90;;;;;;;5.87;64.87;102134.06;5007729;28;20232;-58
2022/03/05 10:30:30;;;;;;;11.33;9.00;;;;;;;6.19;63.67;102132.78;5014444;28;20244;-58
2022/03/05 10:32:57;;;;;;;13.90;9.37;;;;;;;6.28;63.02;102138.31;5013949;28;20735;-59
2022/03/05 10:35:25;;;;;;;10.00;8.53;;;;;;;6.32;63.72;102129.81;5014345;28;20330;-64
2022/03/05 10:37:52;;;;;;;9.83;7.80;;;;;;;6.25;62.41;102132.09;5019379;28;20258;-64
2022/03/05 10:40:26;;;;;;;10.80;8.40;;;;;;;6.05;63.81;102136.56;5017880;28;20233;-63
2022/03/05 10:42:52;;;;;;;12.93;8.73;;;;;;;5.74;65.58;102130.94;5010541;28;20278;-63
2022/03/05 10:45:18;;;;;;;10.47;7.77;;;;;;;5.72;66.33;102122.19;5002728;28;20367;-62
2022/03/05 10:47:47;;;;;;;10.77;7.83;;;;;;;5.73;63.94;102121.34;5015259;28;20241;-55
2022/03/05 10:50:25;;;;;;;11.20;8.10;;;;;;;5.92;64.88;102122.09;5009971;28;20240;-63
2022/03/05 10:52:53;;;;;;;8.20;6.63;;;;;;;6.19;65.44;102122.34;5015124;28;20287;-61
2022/03/05 10:55:20;;;;;;;8.60;7.70;;;;;;;6.42;62.37;102118.00;5014076;28;20255;-56
2022/03/05 10:58:02;;;;;;;8.17;7.20;;;;;;;6.57;61.72;102113.38;4999130;28;20251;-56
2022/03/05 11:00:29;;;;;;;9.63;8.17;;;;;;;6.48;61.34;102104.31;5012689;28;20236;-53
2022/03/05 11:10:34;;;;;;;8.03;6.83;;;;;;;6.82;59.06;102101.22;4968869;28;20316;-53
2022/03/05 11:13:02;;;;;;;7.83;7.03;;;;;;;6.35;60.76;102102.94;4982822;28;20315;-55
2022/03/05 11:15:30;;;;;;;8.80;7.17;;;;;;;6.65;60.31;102093.66;4977730;28;20705;-57
2022/03/05 11:17:58;;;;;;;10.70;8.87;;;;;;;6.56;59.28;102101.13;4986002;28;20275;-57
2022/03/05 11:20:25;;;;;;;11.10;6.30;;;;;;;6.98;60.11;102093.09;4987631;28;20268;-56
2022/03/05 11:22:52;;;;;;;9.70;7.43;;;;;;;7.21;59.80;102095.66;4985357;28;20233;-57
2022/03/05 11:25:21;;;;;;;9.43;7.77;;;;;;;7.16;58.50;102088.53;4992040;28;20233;-57
2022/03/05 11:27:58;;;;;;;9.13;8.20;;;;;;;6.76;60.12;102088.84;4999323;28;20240;-58
2022/03/05 11:30:25;;;;;;;7.27;6.30;;;;;;;6.76;60.61;102088.84;4994751;28;20288;-55
2022/03/05 11:32:52;;;;;;;8.10;7.27;;;;;;;6.02;61.46;102093.00;5000475;28;20365;-55